Time,TemperatureF,DewpointF,PressureIn,WindDirection,WindDirectionDegrees,WindSpeedMPH,WindSpeedGustMPH,Humidity,HourlyPrecipIn,Conditions,Clouds,dailyrainin,SolarRadiationWatts/m^2,SoftwareType,DateUTC
2013-10-08 00:04:00,46.0,40.0,-100.00,WNW,294,4.0,11.0,79,0.00,,,1.42,0.000000,,2013-10-08 04:04:00,
2013-10-08 00:43:00,46.0,41.0,-100.00,WNW,286,4.0,11.0,81,0.00,,,1.42,0.000000,,2013-10-08 04:43:00,
2013-10-08 00:53:00,46.0,41.0,-100.00,WNW,286,4.0,11.0,81,0.00,,,1.42,0.000000,,2013-10-08 04:53:00,
2013-10-08 01:03:00,46.0,41.0,-100.00,WNW,286,4.0,11.0,81,0.00,,,1.42,0.000000,,2013-10-08 05:03:00,
2013-10-08 01:42:00,46.0,41.0,-100.00,WNW,290,4.0,11.0,82,0.00,,,1.42,0.000000,,2013-10-08 05:42:00,
2013-10-08 01:53:00,46.0,41.0,-100.00,WNW,290,4.0,11.0,82,0.00,,,1.42,0.000000,,2013-10-08 05:53:00,
2013-10-08 02:02:00,46.0,41.0,-100.00,WNW,290,4.0,11.0,82,0.00,,,1.42,0.000000,,2013-10-08 06:02:00,
2013-10-08 02:42:00,45.0,40.0,-100.00,NW,305,3.0,10.0,84,0.00,,,1.42,0.000000,,2013-10-08 06:42:00,
2013-10-08 02:52:00,45.0,40.0,-100.00,NW,305,3.0,10.0,84,0.00,,,1.42,0.000000,,2013-10-08 06:52:00,
2013-10-08 03:02:00,45.0,40.0,-100.00,NW,305,3.0,10.0,84,0.00,,,1.42,0.000000,,2013-10-08 07:02:00,
2013-10-08 03:42:00,44.0,40.0,-100.00,NNE,33,2.0,9.0,87,0.00,,,1.42,0.000000,,2013-10-08 07:42:00,
2013-10-08 03:52:00,44.0,40.0,-100.00,NNE,33,2.0,9.0,87,0.00,,,1.42,0.000000,,2013-10-08 07:52:00,
2013-10-08 04:02:00,44.0,40.0,-100.00,NNE,33,2.0,9.0,87,0.00,,,1.42,0.000000,,2013-10-08 08:02:00,
2013-10-08 04:42:00,43.0,41.0,-100.00,NW,324,1.0,4.0,92,0.00,,,1.42,0.000000,,2013-10-08 08:42:00,
2013-10-08 04:52:00,43.0,41.0,-100.00,NW,324,1.0,4.0,92,0.00,,,1.42,0.000000,,2013-10-08 08:52:00,
2013-10-08 05:02:00,43.0,41.0,-100.00,NW,324,1.0,4.0,92,0.00,,,1.42,0.000000,,2013-10-08 09:02:00,
2013-10-08 05:43:00,42.0,41.0,-100.00,NE,45,2.0,4.0,95,0.00,,,1.42,0.000000,,2013-10-08 09:43:00,
2013-10-08 05:53:00,42.0,41.0,-100.00,NE,45,2.0,4.0,95,0.00,,,1.42,0.000000,,2013-10-08 09:53:00,
2013-10-08 06:03:00,42.0,41.0,-100.00,NE,45,2.0,4.0,95,0.00,,,1.42,0.000000,,2013-10-08 10:03:00,
2013-10-08 06:42:00,41.0,40.0,-100.00,North,352,1.0,4.0,96,0.00,,,1.42,0.000000,,2013-10-08 10:42:00,
2013-10-08 06:53:00,41.0,40.0,-100.00,North,352,1.0,4.0,96,0.00,,,1.42,0.000000,,2013-10-08 10:53:00,
2013-10-08 07:02:00,41.0,40.0,-100.00,North,352,1.0,4.0,96,0.00,,,1.42,0.000000,,2013-10-08 11:02:00,
2013-10-08 07:42:00,40.0,39.0,-100.00,NNW,331,2.0,2.0,97,0.00,,,1.42,0.000000,,2013-10-08 11:42:00,
2013-10-08 07:52:00,40.0,39.0,-100.00,NNW,331,2.0,2.0,97,0.00,,,1.42,0.000000,,2013-10-08 11:52:00,
2013-10-08 08:02:00,40.0,39.0,-100.00,NNW,331,2.0,2.0,97,0.00,,,1.42,0.000000,,2013-10-08 12:02:00,
2013-10-08 08:42:00,41.0,40.0,-100.00,NNW,329,1.0,3.0,98,0.00,,,1.42,14.000000,,2013-10-08 12:42:00,
2013-10-08 08:52:00,41.0,40.0,-100.00,NNW,329,1.0,3.0,98,0.00,,,1.42,14.000000,,2013-10-08 12:52:00,
2013-10-08 09:01:00,41.0,40.0,-100.00,NNW,329,1.0,3.0,98,0.00,,,1.42,14.000000,,2013-10-08 13:01:00,
2013-10-08 09:42:00,50.0,49.0,-100.00,SW,225,2.0,4.0,97,0.00,,,1.42,137.000000,,2013-10-08 13:42:00,
2013-10-08 09:52:00,50.0,49.0,-100.00,SW,225,2.0,4.0,97,0.00,,,1.42,137.000000,,2013-10-08 13:52:00,
2013-10-08 10:02:00,50.0,49.0,-100.00,SW,225,2.0,4.0,97,0.00,,,1.42,137.000000,,2013-10-08 14:02:00,
2013-10-08 10:42:00,55.0,45.0,-100.00,NNE,15,4.0,9.0,70,0.00,,,1.25,356.000000,,2013-10-08 14:42:00,
2013-10-08 10:52:00,55.0,45.0,-100.00,NNE,15,4.0,9.0,70,0.00,,,1.25,356.000000,,2013-10-08 14:52:00,
2013-10-08 11:01:00,55.0,45.0,-100.00,NNE,15,4.0,9.0,70,0.00,,,1.25,356.000000,,2013-10-08 15:01:00,
2013-10-08 11:44:00,58.0,41.0,-100.00,West,259,4.0,15.0,54,0.00,,,0.17,502.000000,,2013-10-08 15:44:00,
2013-10-08 11:53:00,58.0,41.0,-100.00,West,259,4.0,15.0,54,0.00,,,0.17,502.000000,,2013-10-08 15:53:00,
2013-10-08 12:03:00,58.0,41.0,-100.00,West,259,4.0,15.0,54,0.00,,,0.17,502.000000,,2013-10-08 16:03:00,
2013-10-08 12:42:00,61.0,43.0,-100.00,ENE,69,4.0,12.0,51,0.00,,,0.16,595.000000,,2013-10-08 16:42:00,
2013-10-08 12:53:00,61.0,43.0,-100.00,ENE,69,4.0,12.0,51,0.00,,,0.16,595.000000,,2013-10-08 16:53:00,
2013-10-08 13:03:00,61.0,43.0,-100.00,ENE,69,4.0,12.0,51,0.00,,,0.16,595.000000,,2013-10-08 17:03:00,
2013-10-08 13:43:00,62.0,42.0,-100.00,NW,315,5.0,12.0,48,0.00,,,0.03,654.000000,,2013-10-08 17:43:00,
2013-10-08 13:52:00,62.0,42.0,-100.00,NW,315,5.0,12.0,48,0.00,,,0.03,654.000000,,2013-10-08 17:52:00,
2013-10-08 14:02:00,62.0,42.0,-100.00,NW,315,5.0,12.0,48,0.00,,,0.03,654.000000,,2013-10-08 18:02:00,
2013-10-08 14:42:00,63.0,39.0,-100.00,NE,37,5.0,14.0,41,0.00,,,0.01,646.000000,,2013-10-08 18:42:00,
2013-10-08 14:53:00,63.0,39.0,-100.00,NE,37,5.0,14.0,41,0.00,,,0.01,646.000000,,2013-10-08 18:53:00,
2013-10-08 15:02:00,63.0,39.0,-100.00,NE,37,5.0,14.0,41,0.00,,,0.01,646.000000,,2013-10-08 19:02:00,
2013-10-08 15:43:00,65.0,38.0,-100.00,East,86,5.0,15.0,37,0.00,,,0.00,586.000000,,2013-10-08 19:43:00,
2013-10-08 15:53:00,65.0,38.0,-100.00,East,86,5.0,15.0,37,0.00,,,0.00,586.000000,,2013-10-08 19:53:00,
2013-10-08 16:02:00,65.0,38.0,-100.00,East,86,5.0,15.0,37,0.00,,,0.00,586.000000,,2013-10-08 20:02:00,
2013-10-08 16:42:00,64.0,35.0,-100.00,NE,44,5.0,11.0,34,0.00,,,0.00,477.000000,,2013-10-08 20:42:00,
2013-10-08 16:52:00,64.0,35.0,-100.00,NE,44,5.0,11.0,34,0.00,,,0.00,477.000000,,2013-10-08 20:52:00,
2013-10-08 17:02:00,64.0,35.0,-100.00,NE,44,5.0,11.0,34,0.00,,,0.00,477.000000,,2013-10-08 21:02:00,
2013-10-08 17:44:00,63.0,35.0,-100.00,North,359,4.0,9.0,35,0.00,,,0.00,319.000000,,2013-10-08 21:44:00,
2013-10-08 17:54:00,63.0,35.0,-100.00,North,359,4.0,9.0,35,0.00,,,0.00,319.000000,,2013-10-08 21:54:00,
2013-10-08 18:03:00,63.0,35.0,-100.00,North,359,4.0,9.0,35,0.00,,,0.00,319.000000,,2013-10-08 22:03:00,
2013-10-08 18:49:00,59.0,33.0,-100.00,ENE,61,2.0,9.0,38,0.00,,,0.00,34.000000,,2013-10-08 22:49:00,
2013-10-08 18:59:00,59.0,33.0,-100.00,ENE,61,2.0,9.0,38,0.00,,,0.00,34.000000,,2013-10-08 22:59:00,
2013-10-08 19:42:00,53.0,36.0,-100.00,North,359,2.0,4.0,52,0.00,,,0.00,7.000000,,2013-10-08 23:42:00,
2013-10-08 19:53:00,53.0,36.0,-100.00,North,359,2.0,4.0,52,0.00,,,0.00,7.000000,,2013-10-08 23:53:00,
2013-10-08 20:02:00,53.0,36.0,-100.00,North,359,2.0,4.0,52,0.00,,,0.00,7.000000,,2013-10-09 00:02:00,
2013-10-08 20:43:00,49.0,39.0,-100.00,NW,324,2.0,4.0,69,0.00,,,0.00,0.000000,,2013-10-09 00:43:00,
2013-10-08 20:52:00,49.0,39.0,-100.00,NW,324,2.0,4.0,69,0.00,,,0.00,0.000000,,2013-10-09 00:52:00,
2013-10-08 21:02:00,49.0,39.0,-100.00,NW,324,2.0,4.0,69,0.00,,,0.00,0.000000,,2013-10-09 01:02:00,
2013-10-08 21:43:00,47.0,38.0,-100.00,NNW,329,0.0,2.0,71,0.00,,,0.00,0.000000,,2013-10-09 01:43:00,
2013-10-08 21:52:00,47.0,38.0,-100.00,NNW,329,0.0,2.0,71,0.00,,,0.00,0.000000,,2013-10-09 01:52:00,
2013-10-08 22:03:00,47.0,38.0,-100.00,NNW,329,0.0,2.0,71,0.00,,,0.00,0.000000,,2013-10-09 02:03:00,
2013-10-08 22:42:00,46.0,37.0,-100.00,ENE,68,0.0,2.0,71,0.00,,,0.00,0.000000,,2013-10-09 02:42:00,
2013-10-08 22:52:00,46.0,37.0,-100.00,ENE,68,0.0,2.0,71,0.00,,,0.00,0.000000,,2013-10-09 02:52:00,
2013-10-08 23:02:00,46.0,37.0,-100.00,ENE,68,0.0,2.0,71,0.00,,,0.00,0.000000,,2013-10-09 03:02:00,
2013-10-08 23:45:00,45.0,36.0,-100.00,ENE,62,0.0,2.0,71,0.00,,,0.00,0.000000,,2013-10-09 03:45:00,
2013-10-08 23:54:00,45.0,36.0,-100.00,ENE,62,0.0,2.0,71,0.00,,,0.00,0.000000,,2013-10-09 03:54:00,